createdAt,value
2023-03-29T00:01:02.767Z,73.00
2023-03-29T00:03:31.732Z,73.20
2023-03-29T00:06:05.710Z,73.30
2023-03-29T00:08:35.056Z,73.00
2023-03-29T00:11:03.567Z,72.90
2023-03-29T00:13:34.062Z,72.60
2023-03-29T00:16:02.325Z,72.70
2023-03-29T00:18:30.562Z,73.30
2023-03-29T00:21:00.320Z,73.40
2023-03-29T00:23:29.140Z,72.90
2023-03-29T00:25:58.100Z,72.90
2023-03-29T00:28:26.547Z,73.20
2023-03-29T00:31:06.580Z,73.40
2023-03-29T00:33:35.106Z,74.10
2023-03-29T00:36:04.610Z,74.20
2023-03-29T00:38:33.356Z,74.70
2023-03-29T00:41:02.328Z,75.10
2023-03-29T00:43:31.143Z,75.60
2023-03-29T00:46:01.332Z,75.90
2023-03-29T00:48:31.381Z,76.80
2023-03-29T00:51:02.568Z,77.30
2023-03-29T00:53:34.652Z,77.60
2023-03-29T00:56:06.987Z,77.80
2023-03-29T00:58:39.423Z,77.90
2023-03-29T01:01:13.888Z,78.10
2023-03-29T01:03:47.337Z,78.60
2023-03-29T01:06:18.364Z,79.10
2023-03-29T01:08:52.108Z,79.90
2023-03-29T01:11:23.869Z,80.40
2023-03-29T01:13:56.774Z,80.60
2023-03-29T01:16:30.330Z,80.60
2023-03-29T01:18:59.564Z,81.20
2023-03-29T01:21:32.762Z,81.40
2023-03-29T01:24:18.804Z,81.90
2023-03-29T01:26:58.449Z,82.20
2023-03-29T01:29:33.171Z,82.30
2023-03-29T01:32:06.027Z,83.00
2023-03-29T01:34:39.653Z,82.90
2023-03-29T01:37:13.967Z,83.00
2023-03-29T01:39:42.309Z,83.50
2023-03-29T01:42:20.425Z,83.80
2023-03-29T01:44:56.940Z,83.80
2023-03-29T01:47:31.464Z,84.10
2023-03-29T01:50:07.554Z,84.80
2023-03-29T01:52:41.640Z,84.50
2023-03-29T01:55:14.220Z,84.40
2023-03-29T01:57:46.304Z,84.10
2023-03-29T02:00:20.649Z,84.40
2023-03-29T02:02:52.267Z,85.90
2023-03-29T02:05:23.311Z,85.30
2023-03-29T02:07:52.881Z,85.10
2023-03-29T02:10:22.888Z,85.00
2023-03-29T02:12:52.075Z,85.10
2023-03-29T02:15:23.546Z,84.80
2023-03-29T02:17:51.938Z,85.20
2023-03-29T02:20:24.914Z,85.30
2023-03-29T02:22:58.879Z,84.90
2023-03-29T02:25:27.222Z,84.70
2023-03-29T02:30:31.520Z,84.80
2023-03-29T02:33:04.792Z,85.90
2023-03-29T02:35:36.496Z,86.10
2023-03-29T02:38:07.267Z,86.30
2023-03-29T02:40:37.719Z,86.50
2023-03-29T02:43:08.589Z,92.80
2023-03-29T02:45:39.942Z,92.30
2023-03-29T02:48:12.982Z,93.90
2023-03-29T02:50:43.991Z,94.70
2023-03-29T02:53:17.597Z,95.00
2023-03-29T02:55:47.929Z,87.60
2023-03-29T02:58:17.097Z,86.30
2023-03-29T03:00:49.300Z,85.60
2023-03-29T03:03:17.848Z,86.50
2023-03-29T03:05:51.134Z,86.30
2023-03-29T03:08:19.971Z,86.30
2023-03-29T03:10:48.815Z,87.10
2023-03-29T03:13:17.122Z,87.00
2023-03-29T03:15:49.244Z,86.70
2023-03-29T03:18:18.371Z,86.60
2023-03-29T03:20:56.235Z,87.00
2023-03-29T03:23:25.234Z,86.90
2023-03-29T03:25:53.914Z,87.10
2023-03-29T03:28:24.341Z,87.20
2023-03-29T03:30:54.367Z,87.50
2023-03-29T03:33:52.945Z,87.50
2023-03-29T03:36:34.642Z,87.70
2023-03-29T03:39:05.867Z,87.70
2023-03-29T03:41:34.537Z,89.40
2023-03-29T03:44:03.785Z,91.70
2023-03-29T03:46:33.982Z,90.10
2023-03-29T03:49:02.943Z,88.00
2023-03-29T03:51:34.106Z,87.10
2023-03-29T03:54:02.366Z,87.70
2023-03-29T03:56:34.399Z,87.90
2023-03-29T03:59:06.986Z,88.00
2023-03-29T04:01:45.021Z,88.00
2023-03-29T04:04:20.698Z,88.00
2023-03-29T04:07:02.864Z,88.00
2023-03-29T04:09:37.673Z,87.90
2023-03-29T04:12:23.510Z,87.80
2023-03-29T04:14:52.154Z,87.90
2023-03-29T04:17:25.392Z,87.90
2023-03-29T04:19:57.537Z,88.10
2023-03-29T04:22:28.446Z,88.00
2023-03-29T04:24:56.683Z,88.00
2023-03-29T04:27:31.064Z,88.00
2023-03-29T04:30:01.573Z,88.00
2023-03-29T04:32:51.292Z,88.10
2023-03-29T04:35:20.944Z,88.30
2023-03-29T04:37:51.550Z,88.30
2023-03-29T04:40:22.729Z,89.10
2023-03-29T04:43:10.716Z,88.30
2023-03-29T04:45:50.604Z,88.40
2023-03-29T04:48:37.585Z,88.20
2023-03-29T04:51:06.592Z,88.30
2023-03-29T04:53:35.982Z,88.30
2023-03-29T04:56:04.455Z,88.60
2023-03-29T04:58:58.613Z,88.10
2023-03-29T05:01:26.872Z,89.30
2023-03-29T05:06:36.807Z,88.60
2023-03-29T05:09:08.989Z,89.60
2023-03-29T05:11:51.411Z,89.60
2023-03-29T05:14:21.782Z,89.80
2023-03-29T05:16:50.238Z,89.80
2023-03-29T05:19:21.860Z,89.90
2023-03-29T05:21:51.138Z,90.00
2023-03-29T05:24:23.678Z,90.10
2023-03-29T05:26:58.712Z,90.00
2023-03-29T05:29:29.550Z,90.10
2023-03-29T05:32:10.183Z,90.10
2023-03-29T05:34:40.773Z,90.10
2023-03-29T05:37:09.316Z,90.10
2023-03-29T05:39:50.033Z,90.20
2023-03-29T05:42:23.653Z,90.10
2023-03-29T05:45:01.789Z,90.10
2023-03-29T05:47:30.398Z,90.20
2023-03-29T05:50:00.151Z,90.10
2023-03-29T05:52:28.402Z,90.20
2023-03-29T05:54:58.215Z,90.20
2023-03-29T05:57:27.519Z,94.00
2023-03-29T05:59:56.498Z,90.00
2023-03-29T06:02:28.581Z,90.30
2023-03-29T06:04:57.486Z,90.30
2023-03-29T06:07:27.132Z,90.30
2023-03-29T06:10:31.159Z,90.30
2023-03-29T06:13:14.612Z,90.20
2023-03-29T06:15:42.903Z,90.30
2023-03-29T06:18:11.772Z,90.20
2023-03-29T06:20:40.630Z,90.20
2023-03-29T06:23:15.872Z,90.30
2023-03-29T06:25:45.661Z,90.20
2023-03-29T06:28:14.450Z,90.40
2023-03-29T06:30:43.746Z,90.30
2023-03-29T06:33:12.698Z,90.40
2023-03-29T06:36:10.959Z,90.30
2023-03-29T06:38:41.658Z,90.40
2023-03-29T06:41:21.574Z,90.40
2023-03-29T06:43:55.924Z,90.40
2023-03-29T06:46:30.812Z,90.40
2023-03-29T06:49:02.734Z,90.40
2023-03-29T06:51:37.507Z,90.30
2023-03-29T06:54:07.456Z,90.30
2023-03-29T06:56:38.215Z,90.40
2023-03-29T06:59:10.560Z,90.40
2023-03-29T07:01:47.346Z,90.40
2023-03-29T07:04:26.493Z,90.40
2023-03-29T07:07:20.224Z,90.30
2023-03-29T07:09:55.303Z,90.40
2023-03-29T07:12:32.755Z,90.40
2023-03-29T07:15:02.916Z,90.50
2023-03-29T07:17:51.469Z,90.70
2023-03-29T07:20:23.105Z,90.70
2023-03-29T07:23:01.287Z,90.70
2023-03-29T07:25:31.362Z,90.70
2023-03-29T07:28:00.394Z,90.70
2023-03-29T07:30:31.962Z,90.80
2023-03-29T07:33:27.160Z,90.80
2023-03-29T07:36:03.399Z,90.80
2023-03-29T07:38:32.656Z,90.80
2023-03-29T07:41:08.155Z,90.70
2023-03-29T07:43:47.242Z,90.60
2023-03-29T07:46:19.578Z,90.50
2023-03-29T07:48:48.350Z,90.50
2023-03-29T07:51:17.228Z,90.40
2023-03-29T07:53:57.631Z,90.40
2023-03-29T07:56:46.151Z,90.40
2023-03-29T07:59:41.461Z,90.20
2023-03-29T08:02:14.429Z,90.20
2023-03-29T08:04:46.920Z,90.10
2023-03-29T08:07:21.035Z,90.30
2023-03-29T08:10:24.428Z,90.50
2023-03-29T08:13:18.362Z,91.20
2023-03-29T08:16:07.753Z,89.70
2023-03-29T08:18:41.116Z,90.00
2023-03-29T08:21:10.189Z,90.00
2023-03-29T08:23:38.656Z,90.10
2023-03-29T08:26:13.815Z,90.10
2023-03-29T08:28:43.941Z,90.00
2023-03-29T08:31:13.468Z,90.20
2023-03-29T08:33:44.578Z,90.20
2023-03-29T08:36:31.345Z,90.20
2023-03-29T08:39:05.860Z,90.10
2023-03-29T08:41:42.678Z,90.00
2023-03-29T08:44:23.484Z,90.00
2023-03-29T08:47:07.633Z,90.00
2023-03-29T08:49:45.229Z,90.00
2023-03-29T08:52:22.268Z,90.00
2023-03-29T08:54:56.099Z,90.00
2023-03-29T08:57:32.969Z,90.00
2023-03-29T09:00:20.970Z,90.00
2023-03-29T09:02:53.852Z,90.10
2023-03-29T09:05:27.974Z,90.20
2023-03-29T09:08:07.906Z,90.20
2023-03-29T09:10:43.101Z,90.30
2023-03-29T09:13:27.604Z,90.20
2023-03-29T09:16:03.717Z,90.20
2023-03-29T09:18:48.556Z,90.20
2023-03-29T09:21:23.916Z,90.30
2023-03-29T09:24:11.751Z,90.20
2023-03-29T09:26:49.956Z,90.30
2023-03-29T09:29:42.185Z,90.40
2023-03-29T09:32:18.806Z,90.40
2023-03-29T09:34:55.649Z,90.30
2023-03-29T09:37:31.481Z,90.30
2023-03-29T09:40:00.620Z,90.30
2023-03-29T09:42:46.598Z,90.30
2023-03-29T09:45:14.961Z,90.30
2023-03-29T09:47:53.360Z,90.30
2023-03-29T09:50:31.500Z,90.30
2023-03-29T09:53:02.972Z,90.30
2023-03-29T09:55:37.105Z,90.30
2023-03-29T09:58:33.042Z,90.30
2023-03-29T10:01:05.725Z,90.20
2023-03-29T10:03:38.231Z,90.10
2023-03-29T10:06:13.454Z,90.10
2023-03-29T10:08:51.537Z,90.10
2023-03-29T10:11:24.640Z,90.10
2023-03-29T10:13:57.431Z,90.10
2023-03-29T10:16:30.351Z,90.10
2023-03-29T10:19:00.122Z,90.10
2023-03-29T10:21:30.759Z,90.10
2023-03-29T10:24:00.472Z,90.00
2023-03-29T10:26:32.642Z,90.00
2023-03-29T10:29:03.814Z,89.70
2023-03-29T10:31:33.256Z,89.50
2023-03-29T10:34:06.782Z,89.10
2023-03-29T10:36:36.298Z,88.80
2023-03-29T10:39:06.495Z,88.80
2023-03-29T10:41:36.822Z,88.90
2023-03-29T10:44:05.495Z,88.90
2023-03-29T10:46:42.171Z,88.70
2023-03-29T10:49:20.367Z,88.60
2023-03-29T10:51:50.785Z,88.80
2023-03-29T10:54:22.284Z,88.40
2023-03-29T10:56:54.206Z,88.00
2023-03-29T10:59:30.917Z,88.50
2023-03-29T11:02:19.228Z,88.50
2023-03-29T11:04:52.572Z,87.90
2023-03-29T11:07:30.018Z,89.40
2023-03-29T11:10:12.305Z,88.60
2023-03-29T11:12:48.711Z,88.40
2023-03-29T11:15:27.522Z,88.20
2023-03-29T11:18:09.033Z,88.70
2023-03-29T11:20:43.141Z,89.20
2023-03-29T11:23:28.409Z,89.10
2023-03-29T11:26:08.962Z,87.40
2023-03-29T11:28:42.984Z,87.30
2023-03-29T11:31:25.008Z,88.10
2023-03-29T11:34:03.990Z,87.10
2023-03-29T11:36:40.164Z,87.70
2023-03-29T11:39:16.918Z,87.20
2023-03-29T11:41:48.015Z,87.60
2023-03-29T11:44:20.511Z,86.50
2023-03-29T11:46:54.678Z,86.50
2023-03-29T11:49:27.344Z,87.40
2023-03-29T11:52:02.041Z,87.20
2023-03-29T11:54:34.602Z,86.60
2023-03-29T11:57:08.083Z,86.60
2023-03-29T11:59:42.140Z,86.40
2023-03-29T12:02:17.902Z,86.60
2023-03-29T12:04:51.650Z,86.50
2023-03-29T12:07:26.696Z,85.70
2023-03-29T12:09:58.087Z,85.30
2023-03-29T12:12:29.984Z,83.80
2023-03-29T12:15:05.542Z,85.00
2023-03-29T12:17:39.332Z,84.00
2023-03-29T12:20:16.725Z,83.80
2023-03-29T12:22:50.940Z,85.00
2023-03-29T12:25:22.781Z,83.70
2023-03-29T12:28:05.584Z,83.60
2023-03-29T12:30:47.815Z,83.40
2023-03-29T12:33:43.552Z,85.20
2023-03-29T12:37:03.639Z,84.50
2023-03-29T12:40:15.065Z,84.40
2023-03-29T12:43:27.067Z,83.70
2023-03-29T12:46:32.792Z,82.50
2023-03-29T12:49:09.550Z,85.00
2023-03-29T12:51:41.084Z,84.20
2023-03-29T12:54:15.397Z,84.50
2023-03-29T12:56:58.338Z,84.20
2023-03-29T12:59:35.168Z,83.70
2023-03-29T13:02:21.942Z,83.80
2023-03-29T13:04:52.494Z,84.70
2023-03-29T13:07:31.917Z,84.90
2023-03-29T13:10:03.202Z,84.70
2023-03-29T13:12:40.312Z,85.40
2023-03-29T13:15:24.156Z,85.40
2023-03-29T13:18:00.217Z,86.30
2023-03-29T13:20:44.685Z,86.20
2023-03-29T13:23:30.493Z,86.20
2023-03-29T13:26:14.280Z,86.00
2023-03-29T13:29:20.398Z,85.50
2023-03-29T13:31:58.731Z,85.50
2023-03-29T13:34:37.713Z,85.70
2023-03-29T13:37:19.257Z,85.50
2023-03-29T13:39:51.151Z,84.80
2023-03-29T13:42:24.769Z,86.10
2023-03-29T13:45:05.867Z,86.20
2023-03-29T13:47:48.978Z,85.40
2023-03-29T13:50:36.230Z,86.30
2023-03-29T13:53:11.109Z,85.60
2023-03-29T13:55:46.592Z,85.40
2023-03-29T13:58:21.726Z,85.20
2023-03-29T14:00:56.695Z,85.20
2023-03-29T14:03:29.992Z,84.10
2023-03-29T14:06:01.908Z,82.90
2023-03-29T14:08:35.363Z,83.00
2023-03-29T14:11:06.987Z,80.70
2023-03-29T14:13:36.368Z,80.80
2023-03-29T14:16:10.367Z,82.30
2023-03-29T14:18:40.729Z,82.60
2023-03-29T14:21:09.688Z,83.10
2023-03-29T14:23:42.061Z,83.70
2023-03-29T14:26:17.020Z,83.80
2023-03-29T14:28:47.236Z,83.80
2023-03-29T14:31:25.220Z,82.30
2023-03-29T14:33:54.494Z,81.50
2023-03-29T14:36:23.793Z,82.60
2023-03-29T14:38:54.366Z,82.20
2023-03-29T14:41:24.367Z,82.80
2023-03-29T14:43:52.980Z,81.80
2023-03-29T14:46:23.083Z,83.40
2023-03-29T14:48:51.615Z,83.40
2023-03-29T14:51:20.434Z,84.00
2023-03-29T14:53:49.409Z,83.90
2023-03-29T14:56:24.166Z,84.30
2023-03-29T14:58:55.784Z,84.10
2023-03-29T15:01:27.933Z,84.00
2023-03-29T15:04:03.286Z,84.50
2023-03-29T15:06:33.008Z,83.00
2023-03-29T15:09:05.954Z,84.50
2023-03-29T15:11:35.965Z,84.90
2023-03-29T15:14:07.167Z,84.70
2023-03-29T15:16:39.909Z,84.10
2023-03-29T15:19:08.342Z,84.50
2023-03-29T15:21:36.786Z,85.10
2023-03-29T15:24:06.173Z,85.10
2023-03-29T15:26:36.068Z,85.70
2023-03-29T15:29:09.161Z,87.90
2023-03-29T15:31:41.206Z,89.10
2023-03-29T15:34:12.913Z,89.70
2023-03-29T15:36:42.486Z,90.20
2023-03-29T15:39:14.552Z,90.50
2023-03-29T15:41:43.650Z,90.70
2023-03-29T15:44:12.257Z,90.90
2023-03-29T15:46:41.979Z,91.30
2023-03-29T15:49:12.452Z,94.00
2023-03-29T15:51:41.693Z,91.30
2023-03-29T15:54:09.941Z,91.70
2023-03-29T15:56:46.970Z,90.80
2023-03-29T15:59:15.328Z,90.40
2023-03-29T16:01:46.945Z,90.40
2023-03-29T16:04:17.411Z,90.40
2023-03-29T16:06:48.939Z,90.50
2023-03-29T16:09:17.391Z,90.50
2023-03-29T16:11:47.167Z,90.60
2023-03-29T16:14:21.153Z,90.70
2023-03-29T16:16:51.375Z,90.70
2023-03-29T16:19:20.157Z,90.80
2023-03-29T16:21:49.191Z,90.70
2023-03-29T16:24:20.027Z,90.80
2023-03-29T16:26:48.636Z,90.80
2023-03-29T16:29:17.469Z,90.90
2023-03-29T16:31:46.854Z,91.20
2023-03-29T16:34:18.758Z,91.20
2023-03-29T16:36:47.827Z,91.30
2023-03-29T16:39:16.624Z,91.30
2023-03-29T16:41:48.455Z,91.50
2023-03-29T16:44:21.603Z,91.50
2023-03-29T16:46:52.784Z,91.40
2023-03-29T16:49:22.500Z,91.60
2023-03-29T16:51:51.205Z,91.70
2023-03-29T16:54:19.769Z,92.00
2023-03-29T16:56:48.229Z,92.10
2023-03-29T16:59:16.741Z,92.10
2023-03-29T17:01:45.119Z,92.20
2023-03-29T17:04:13.590Z,92.30
2023-03-29T17:06:43.264Z,92.40
2023-03-29T17:09:11.551Z,92.50
2023-03-29T17:11:39.762Z,92.70
2023-03-29T17:14:08.138Z,92.60
2023-03-29T17:16:36.352Z,93.10
2023-03-29T17:19:04.672Z,93.30
2023-03-29T17:21:33.167Z,93.20
2023-03-29T17:24:03.156Z,93.00
2023-03-29T17:26:31.438Z,93.40
2023-03-29T17:28:59.725Z,93.50
2023-03-29T17:31:28.026Z,93.60
2023-03-29T17:33:56.368Z,93.50
2023-03-29T17:36:25.392Z,93.40
2023-03-29T17:38:54.751Z,93.60
2023-03-29T17:41:24.697Z,93.40
2023-03-29T17:43:52.925Z,93.80
2023-03-29T17:46:22.840Z,93.70
2023-03-29T17:48:51.998Z,93.90
2023-03-29T17:51:21.152Z,93.80
2023-03-29T17:53:49.484Z,94.20
2023-03-29T17:56:17.663Z,95.60
2023-03-29T17:58:49.164Z,96.10
2023-03-29T18:01:19.545Z,96.90
2023-03-29T18:03:48.661Z,99.90
2023-03-29T18:06:20.201Z,97.40
2023-03-29T18:08:48.822Z,96.80
2023-03-29T18:11:22.102Z,97.20
2023-03-29T18:13:52.426Z,96.20
2023-03-29T18:16:21.627Z,96.30
2023-03-29T18:18:50.325Z,95.90
2023-03-29T18:21:19.422Z,96.40
2023-03-29T18:23:48.977Z,95.90
2023-03-29T18:26:18.152Z,96.60
2023-03-29T18:28:47.706Z,97.00
2023-03-29T18:31:19.826Z,97.00
2023-03-29T18:33:48.575Z,98.20
2023-03-29T18:36:17.111Z,98.20
2023-03-29T18:38:45.832Z,98.00
2023-03-29T18:41:15.017Z,97.70
2023-03-29T18:43:44.278Z,97.40
2023-03-29T18:46:12.685Z,97.50
2023-03-29T18:48:42.622Z,97.50
2023-03-29T18:51:12.706Z,97.70
2023-03-29T18:53:42.027Z,97.70
2023-03-29T18:56:11.186Z,97.70
2023-03-29T18:58:39.582Z,97.80
2023-03-29T19:01:08.154Z,97.80
2023-03-29T19:03:37.042Z,97.80
2023-03-29T19:06:08.038Z,97.70
2023-03-29T19:08:39.634Z,97.80
2023-03-29T19:11:08.855Z,98.00
2023-03-29T19:13:37.456Z,97.80
2023-03-29T19:16:06.400Z,98.30
2023-03-29T19:18:35.242Z,98.30
2023-03-29T19:21:03.741Z,98.10
2023-03-29T19:23:33.391Z,98.30
2023-03-29T19:26:03.590Z,98.30
2023-03-29T19:28:32.971Z,98.00
2023-03-29T19:31:03.020Z,96.90
2023-03-29T19:33:31.804Z,97.00
2023-03-29T19:36:00.132Z,97.00
2023-03-29T19:38:28.479Z,96.80
2023-03-29T19:40:58.145Z,97.20
2023-03-29T19:43:27.134Z,97.30
2023-03-29T19:45:55.365Z,97.00
2023-03-29T19:48:24.481Z,97.00
2023-03-29T19:50:53.065Z,97.40
2023-03-29T19:53:23.179Z,97.30
2023-03-29T19:55:52.463Z,97.70
2023-03-29T19:58:22.887Z,98.00
2023-03-29T20:00:53.325Z,97.50
2023-03-29T20:03:22.289Z,97.70
2023-03-29T20:05:50.551Z,98.40
2023-03-29T20:08:18.800Z,99.40
2023-03-29T20:10:46.937Z,99.80
2023-03-29T20:13:21.853Z,99.90
2023-03-29T20:15:57.658Z,99.90
2023-03-29T20:18:26.300Z,99.90
2023-03-29T20:20:54.732Z,99.90
2023-03-29T20:23:23.058Z,99.90
2023-03-29T20:25:51.312Z,99.90
2023-03-29T20:28:19.728Z,99.90
2023-03-29T20:30:51.249Z,99.90
2023-03-29T20:33:21.612Z,99.90
2023-03-29T20:35:50.291Z,99.70
2023-03-29T20:38:18.701Z,99.40
2023-03-29T20:40:47.019Z,99.30
2023-03-29T20:43:18.784Z,99.30
2023-03-29T20:45:54.023Z,99.30
2023-03-29T20:48:24.821Z,99.80
2023-03-29T20:50:54.374Z,99.90
2023-03-29T20:53:22.648Z,99.90
2023-03-29T20:55:51.691Z,99.90
2023-03-29T20:58:19.979Z,99.90
2023-03-29T21:00:48.499Z,99.90
2023-03-29T21:03:17.781Z,99.90
2023-03-29T21:05:47.438Z,99.90
2023-03-29T21:08:18.312Z,99.90
2023-03-29T21:10:47.818Z,99.90
2023-03-29T21:13:16.017Z,99.90
2023-03-29T21:15:44.501Z,99.90
2023-03-29T21:18:12.857Z,99.90
2023-03-29T21:20:41.096Z,99.90
2023-03-29T21:23:10.714Z,99.90
2023-03-29T21:25:38.889Z,99.90
2023-03-29T21:28:07.145Z,99.90
2023-03-29T21:30:35.439Z,99.90
2023-03-29T21:33:03.836Z,99.90
2023-03-29T21:35:33.314Z,99.90
2023-03-29T21:38:01.899Z,99.90
2023-03-29T21:40:31.597Z,99.90
2023-03-29T21:42:59.797Z,99.90
2023-03-29T21:45:28.398Z,99.90
2023-03-29T21:47:56.684Z,99.90
2023-03-29T21:50:25.020Z,99.90
2023-03-29T21:52:53.341Z,99.90
2023-03-29T21:55:21.595Z,99.90
2023-03-29T21:57:51.143Z,99.90
2023-03-29T22:00:19.575Z,99.90
2023-03-29T22:02:47.897Z,99.90
2023-03-29T22:05:16.666Z,99.90
2023-03-29T22:07:44.998Z,99.90
2023-03-29T22:10:14.073Z,99.90
2023-03-29T22:12:43.048Z,99.90
2023-03-29T22:15:13.427Z,99.90
2023-03-29T22:17:44.088Z,99.90
2023-03-29T22:20:13.886Z,99.90
2023-03-29T22:22:46.064Z,99.90
2023-03-29T22:25:14.534Z,99.90
2023-03-29T22:27:44.619Z,99.90
2023-03-29T22:30:17.968Z,99.90
2023-03-29T22:32:46.349Z,99.90
2023-03-29T22:35:14.686Z,99.90
2023-03-29T22:37:43.856Z,99.90
2023-03-29T22:40:13.472Z,99.90
2023-03-29T22:42:41.832Z,99.90
2023-03-29T22:45:11.314Z,99.90
2023-03-29T22:47:41.036Z,99.90
2023-03-29T22:50:10.295Z,99.90
2023-03-29T22:52:38.563Z,99.90
2023-03-29T22:55:07.741Z,99.90
2023-03-29T22:57:36.046Z,99.90
2023-03-29T23:00:09.014Z,99.90
2023-03-29T23:02:38.182Z,99.90
2023-03-29T23:05:09.248Z,99.90
2023-03-29T23:07:37.627Z,99.90
2023-03-29T23:10:07.247Z,99.90
2023-03-29T23:12:36.666Z,99.90
2023-03-29T23:15:06.326Z,99.90
2023-03-29T23:17:34.806Z,99.90
2023-03-29T23:20:05.939Z,99.90
2023-03-29T23:22:36.486Z,99.90
2023-03-29T23:25:04.969Z,99.90
2023-03-29T23:27:34.637Z,99.90
2023-03-29T23:30:02.944Z,99.90
2023-03-29T23:32:31.193Z,99.90
2023-03-29T23:35:00.397Z,99.90
2023-03-29T23:37:28.843Z,99.90
2023-03-29T23:39:58.443Z,99.90
2023-03-29T23:42:26.884Z,99.90
2023-03-29T23:44:55.932Z,99.90
2023-03-29T23:47:24.479Z,99.90
2023-03-29T23:49:53.315Z,99.90
2023-03-29T23:52:23.093Z,99.90
2023-03-29T23:54:51.500Z,99.90
2023-03-29T23:57:21.357Z,99.90
2023-03-29T23:59:52.797Z,99.90
